sensor_id;sensor_type;location;lat;lon;timestamp;P1;durP1;ratioP1;P2;durP2;ratioP2
48526;SDS011;34317;51.660;5.824;2022-10-22T00:00:05;8.30;;;4.70;;
48526;SDS011;34317;51.660;5.824;2022-10-22T00:02:34;7.93;;;4.90;;
48526;SDS011;34317;51.660;5.824;2022-10-22T00:05:02;6.88;;;4.78;;
48526;SDS011;34317;51.660;5.824;2022-10-22T00:07:29;8.02;;;5.00;;
48526;SDS011;34317;51.660;5.824;2022-10-22T00:09:56;7.95;;;5.35;;
48526;SDS011;34317;51.660;5.824;2022-10-22T00:12:24;13.70;;;5.13;;
48526;SDS011;34317;51.660;5.824;2022-10-22T00:14:51;7.47;;;4.85;;
48526;SDS011;34317;51.660;5.824;2022-10-22T00:17:18;8.48;;;5.07;;
48526;SDS011;34317;51.660;5.824;2022-10-22T00:19:45;9.23;;;5.65;;
48526;SDS011;34317;51.660;5.824;2022-10-22T00:22:12;9.45;;;5.28;;
48526;SDS011;34317;51.660;5.824;2022-10-22T00:24:39;7.93;;;5.35;;
48526;SDS011;34317;51.660;5.824;2022-10-22T00:27:07;9.43;;;5.57;;
48526;SDS011;34317;51.660;5.824;2022-10-22T00:29:35;10.60;;;5.38;;
48526;SDS011;34317;51.660;5.824;2022-10-22T00:32:03;10.27;;;5.85;;
48526;SDS011;34317;51.660;5.824;2022-10-22T00:34:31;9.30;;;5.88;;
48526;SDS011;34317;51.660;5.824;2022-10-22T00:36:58;9.20;;;5.22;;
48526;SDS011;34317;51.660;5.824;2022-10-22T00:39:25;10.48;;;5.45;;
48526;SDS011;34317;51.660;5.824;2022-10-22T00:41:53;6.53;;;4.97;;
48526;SDS011;34317;51.660;5.824;2022-10-22T00:47:27;6.85;;;4.63;;
48526;SDS011;34317;51.660;5.824;2022-10-22T00:49:58;13.82;;;5.57;;
48526;SDS011;34317;51.660;5.824;2022-10-22T00:52:27;8.25;;;5.20;;
48526;SDS011;34317;51.660;5.824;2022-10-22T00:54:54;8.80;;;5.90;;
48526;SDS011;34317;51.660;5.824;2022-10-22T00:57:22;8.38;;;5.93;;
48526;SDS011;34317;51.660;5.824;2022-10-22T00:59:49;7.78;;;5.65;;
48526;SDS011;34317;51.660;5.824;2022-10-22T01:02:17;7.90;;;5.35;;
48526;SDS011;34317;51.660;5.824;2022-10-22T01:04:44;8.63;;;5.13;;
48526;SDS011;34317;51.660;5.824;2022-10-22T01:07:18;7.68;;;5.22;;
48526;SDS011;34317;51.660;5.824;2022-10-22T01:13:00;14.90;;;6.00;;
48526;SDS011;34317;51.660;5.824;2022-10-22T01:15:54;8.15;;;5.18;;
48526;SDS011;34317;51.660;5.824;2022-10-22T01:21:08;6.85;;;4.90;;
48526;SDS011;34317;51.660;5.824;2022-10-22T01:32:00;8.80;;;4.43;;
48526;SDS011;34317;51.660;5.824;2022-10-22T01:34:33;7.97;;;4.53;;
48526;SDS011;34317;51.660;5.824;2022-10-22T01:37:00;6.55;;;4.50;;
48526;SDS011;34317;51.660;5.824;2022-10-22T01:39:28;7.55;;;4.90;;
48526;SDS011;34317;51.660;5.824;2022-10-22T01:41:57;6.40;;;4.93;;
48526;SDS011;34317;51.660;5.824;2022-10-22T01:46:52;9.73;;;4.93;;
48526;SDS011;34317;51.660;5.824;2022-10-22T01:49:42;7.88;;;4.88;;
48526;SDS011;34317;51.660;5.824;2022-10-22T01:54:58;7.95;;;5.40;;
48526;SDS011;34317;51.660;5.824;2022-10-22T01:57:41;9.13;;;5.95;;
48526;SDS011;34317;51.660;5.824;2022-10-22T02:00:19;8.23;;;5.72;;
48526;SDS011;34317;51.660;5.824;2022-10-22T02:05:37;7.95;;;5.15;;
48526;SDS011;34317;51.660;5.824;2022-10-22T02:08:13;10.52;;;5.38;;
48526;SDS011;34317;51.660;5.824;2022-10-22T02:10:45;10.50;;;5.82;;
48526;SDS011;34317;51.660;5.824;2022-10-22T02:13:57;9.85;;;5.82;;
48526;SDS011;34317;51.660;5.824;2022-10-22T02:16:08;11.38;;;5.55;;
48526;SDS011;34317;51.660;5.824;2022-10-22T02:18:39;7.53;;;4.60;;
48526;SDS011;34317;51.660;5.824;2022-10-22T02:21:10;6.35;;;4.30;;
48526;SDS011;34317;51.660;5.824;2022-10-22T02:23:38;7.47;;;4.88;;
48526;SDS011;34317;51.660;5.824;2022-10-22T02:26:10;6.72;;;5.07;;
48526;SDS011;34317;51.660;5.824;2022-10-22T02:28:48;8.10;;;4.72;;
48526;SDS011;34317;51.660;5.824;2022-10-22T02:31:30;70.93;;;6.47;;
48526;SDS011;34317;51.660;5.824;2022-10-22T02:34:02;8.30;;;5.32;;
48526;SDS011;34317;51.660;5.824;2022-10-22T02:36:35;7.45;;;5.85;;
48526;SDS011;34317;51.660;5.824;2022-10-22T02:39:03;10.32;;;6.30;;
48526;SDS011;34317;51.660;5.824;2022-10-22T02:41:33;13.00;;;6.43;;
48526;SDS011;34317;51.660;5.824;2022-10-22T02:44:05;9.10;;;5.68;;
48526;SDS011;34317;51.660;5.824;2022-10-22T02:46:35;9.43;;;5.75;;
48526;SDS011;34317;51.660;5.824;2022-10-22T02:49:03;8.52;;;6.07;;
48526;SDS011;34317;51.660;5.824;2022-10-22T02:51:30;7.28;;;5.53;;
48526;SDS011;34317;51.660;5.824;2022-10-22T02:53:57;9.73;;;5.68;;
48526;SDS011;34317;51.660;5.824;2022-10-22T02:56:24;11.85;;;6.13;;
48526;SDS011;34317;51.660;5.824;2022-10-22T02:58:51;12.68;;;6.50;;
48526;SDS011;34317;51.660;5.824;2022-10-22T03:01:18;10.70;;;6.25;;
48526;SDS011;34317;51.660;5.824;2022-10-22T03:03:46;9.65;;;6.05;;
48526;SDS011;34317;51.660;5.824;2022-10-22T03:06:13;12.23;;;6.32;;
48526;SDS011;34317;51.660;5.824;2022-10-22T03:08:40;9.13;;;6.38;;
48526;SDS011;34317;51.660;5.824;2022-10-22T03:11:08;10.18;;;5.93;;
48526;SDS011;34317;51.660;5.824;2022-10-22T03:13:35;11.10;;;6.75;;
48526;SDS011;34317;51.660;5.824;2022-10-22T03:16:02;14.02;;;6.53;;
48526;SDS011;34317;51.660;5.824;2022-10-22T03:18:29;11.68;;;6.10;;
48526;SDS011;34317;51.660;5.824;2022-10-22T03:21:10;14.93;;;6.55;;
48526;SDS011;34317;51.660;5.824;2022-10-22T03:23:49;8.32;;;6.10;;
48526;SDS011;34317;51.660;5.824;2022-10-22T03:26:17;9.00;;;5.65;;
48526;SDS011;34317;51.660;5.824;2022-10-22T03:28:44;12.23;;;6.53;;
48526;SDS011;34317;51.660;5.824;2022-10-22T03:31:13;12.63;;;6.13;;
48526;SDS011;34317;51.660;5.824;2022-10-22T03:33:40;10.77;;;6.10;;
48526;SDS011;34317;51.660;5.824;2022-10-22T03:36:07;10.98;;;6.30;;
48526;SDS011;34317;51.660;5.824;2022-10-22T03:38:36;13.40;;;6.63;;
48526;SDS011;34317;51.660;5.824;2022-10-22T03:41:04;12.02;;;6.65;;
48526;SDS011;34317;51.660;5.824;2022-10-22T03:43:33;14.57;;;6.70;;
48526;SDS011;34317;51.660;5.824;2022-10-22T03:46:00;11.52;;;6.63;;
48526;SDS011;34317;51.660;5.824;2022-10-22T03:48:27;11.65;;;6.60;;
48526;SDS011;34317;51.660;5.824;2022-10-22T03:50:54;13.68;;;7.18;;
48526;SDS011;34317;51.660;5.824;2022-10-22T03:53:22;14.13;;;6.53;;
48526;SDS011;34317;51.660;5.824;2022-10-22T03:55:49;12.55;;;6.70;;
48526;SDS011;34317;51.660;5.824;2022-10-22T03:58:16;14.05;;;6.72;;
48526;SDS011;34317;51.660;5.824;2022-10-22T04:00:43;11.70;;;6.75;;
48526;SDS011;34317;51.660;5.824;2022-10-22T04:03:10;14.23;;;6.82;;
48526;SDS011;34317;51.660;5.824;2022-10-22T04:05:37;11.35;;;6.25;;
48526;SDS011;34317;51.660;5.824;2022-10-22T04:08:04;12.25;;;6.68;;
48526;SDS011;34317;51.660;5.824;2022-10-22T04:10:32;12.13;;;6.30;;
48526;SDS011;34317;51.660;5.824;2022-10-22T04:12:59;10.32;;;6.25;;
48526;SDS011;34317;51.660;5.824;2022-10-22T04:15:26;11.68;;;6.60;;
48526;SDS011;34317;51.660;5.824;2022-10-22T04:17:54;11.00;;;6.07;;
48526;SDS011;34317;51.660;5.824;2022-10-22T04:20:21;15.88;;;6.60;;
48526;SDS011;34317;51.660;5.824;2022-10-22T04:22:48;14.52;;;6.18;;
48526;SDS011;34317;51.660;5.824;2022-10-22T04:25:15;13.10;;;6.40;;
48526;SDS011;34317;51.660;5.824;2022-10-22T04:27:42;12.35;;;5.93;;
48526;SDS011;34317;51.660;5.824;2022-10-22T04:30:10;10.43;;;5.78;;
48526;SDS011;34317;51.660;5.824;2022-10-22T04:32:37;14.85;;;6.55;;
48526;SDS011;34317;51.660;5.824;2022-10-22T04:35:04;15.18;;;6.13;;
48526;SDS011;34317;51.660;5.824;2022-10-22T04:37:31;12.02;;;6.13;;
48526;SDS011;34317;51.660;5.824;2022-10-22T04:39:58;14.68;;;5.65;;
48526;SDS011;34317;51.660;5.824;2022-10-22T04:42:25;12.30;;;6.05;;
48526;SDS011;34317;51.660;5.824;2022-10-22T04:44:52;14.65;;;6.15;;
48526;SDS011;34317;51.660;5.824;2022-10-22T04:47:19;11.20;;;6.03;;
48526;SDS011;34317;51.660;5.824;2022-10-22T04:49:46;15.45;;;5.95;;
48526;SDS011;34317;51.660;5.824;2022-10-22T04:52:13;10.00;;;5.82;;
48526;SDS011;34317;51.660;5.824;2022-10-22T04:54:40;10.32;;;5.95;;
48526;SDS011;34317;51.660;5.824;2022-10-22T04:57:07;10.25;;;5.65;;
48526;SDS011;34317;51.660;5.824;2022-10-22T04:59:34;10.07;;;5.70;;
48526;SDS011;34317;51.660;5.824;2022-10-22T05:02:01;11.40;;;5.80;;
48526;SDS011;34317;51.660;5.824;2022-10-22T05:04:28;10.15;;;6.00;;
48526;SDS011;34317;51.660;5.824;2022-10-22T05:06:56;13.65;;;5.88;;
48526;SDS011;34317;51.660;5.824;2022-10-22T05:09:22;9.50;;;5.72;;
48526;SDS011;34317;51.660;5.824;2022-10-22T05:11:50;13.50;;;6.35;;
48526;SDS011;34317;51.660;5.824;2022-10-22T05:14:19;15.90;;;6.07;;
48526;SDS011;34317;51.660;5.824;2022-10-22T05:16:48;13.10;;;5.30;;
48526;SDS011;34317;51.660;5.824;2022-10-22T05:19:17;11.55;;;5.22;;
48526;SDS011;34317;51.660;5.824;2022-10-22T05:21:53;10.95;;;5.60;;
48526;SDS011;34317;51.660;5.824;2022-10-22T05:24:22;12.45;;;5.70;;
48526;SDS011;34317;51.660;5.824;2022-10-22T05:26:50;11.35;;;4.93;;
48526;SDS011;34317;51.660;5.824;2022-10-22T05:29:18;12.75;;;5.50;;
48526;SDS011;34317;51.660;5.824;2022-10-22T05:31:46;8.05;;;4.95;;
48526;SDS011;34317;51.660;5.824;2022-10-22T05:34:13;14.90;;;5.15;;
48526;SDS011;34317;51.660;5.824;2022-10-22T05:36:41;7.55;;;4.90;;
48526;SDS011;34317;51.660;5.824;2022-10-22T05:39:08;9.82;;;5.10;;
48526;SDS011;34317;51.660;5.824;2022-10-22T05:41:35;11.93;;;5.32;;
48526;SDS011;34317;51.660;5.824;2022-10-22T05:44:03;10.60;;;4.85;;
48526;SDS011;34317;51.660;5.824;2022-10-22T05:46:32;9.63;;;4.75;;
48526;SDS011;34317;51.660;5.824;2022-10-22T05:49:02;10.02;;;4.90;;
48526;SDS011;34317;51.660;5.824;2022-10-22T05:51:31;10.35;;;4.70;;
48526;SDS011;34317;51.660;5.824;2022-10-22T05:54:01;12.48;;;5.10;;
48526;SDS011;34317;51.660;5.824;2022-10-22T05:56:30;9.68;;;5.07;;
48526;SDS011;34317;51.660;5.824;2022-10-22T05:58:58;8.63;;;4.82;;
48526;SDS011;34317;51.660;5.824;2022-10-22T06:01:27;12.80;;;5.38;;
48526;SDS011;34317;51.660;5.824;2022-10-22T06:03:57;14.10;;;4.60;;
48526;SDS011;34317;51.660;5.824;2022-10-22T06:06:36;10.63;;;4.53;;
48526;SDS011;34317;51.660;5.824;2022-10-22T06:09:09;10.27;;;4.65;;
48526;SDS011;34317;51.660;5.824;2022-10-22T06:11:40;15.18;;;4.57;;
48526;SDS011;34317;51.660;5.824;2022-10-22T06:14:08;11.02;;;4.68;;
48526;SDS011;34317;51.660;5.824;2022-10-22T06:16:35;11.57;;;4.80;;
48526;SDS011;34317;51.660;5.824;2022-10-22T06:19:02;12.55;;;4.55;;
48526;SDS011;34317;51.660;5.824;2022-10-22T06:21:30;8.38;;;4.55;;
48526;SDS011;34317;51.660;5.824;2022-10-22T06:23:58;13.90;;;4.10;;
48526;SDS011;34317;51.660;5.824;2022-10-22T06:26:26;12.07;;;4.43;;
48526;SDS011;34317;51.660;5.824;2022-10-22T06:28:54;9.38;;;4.60;;
48526;SDS011;34317;51.660;5.824;2022-10-22T06:31:22;12.52;;;4.30;;
48526;SDS011;34317;51.660;5.824;2022-10-22T06:33:50;9.57;;;4.40;;
48526;SDS011;34317;51.660;5.824;2022-10-22T06:36:18;9.48;;;3.95;;
48526;SDS011;34317;51.660;5.824;2022-10-22T06:38:50;11.45;;;4.05;;
48526;SDS011;34317;51.660;5.824;2022-10-22T06:41:18;9.63;;;4.35;;
48526;SDS011;34317;51.660;5.824;2022-10-22T06:43:47;9.52;;;4.45;;
48526;SDS011;34317;51.660;5.824;2022-10-22T06:46:15;12.75;;;3.97;;
48526;SDS011;34317;51.660;5.824;2022-10-22T06:48:56;7.93;;;4.00;;
48526;SDS011;34317;51.660;5.824;2022-10-22T06:51:25;10.82;;;3.58;;
48526;SDS011;34317;51.660;5.824;2022-10-22T06:53:54;9.00;;;4.00;;
48526;SDS011;34317;51.660;5.824;2022-10-22T06:56:23;11.05;;;4.28;;
48526;SDS011;34317;51.660;5.824;2022-10-22T06:58:53;8.70;;;4.03;;
48526;SDS011;34317;51.660;5.824;2022-10-22T07:01:23;9.68;;;4.20;;
48526;SDS011;34317;51.660;5.824;2022-10-22T07:03:53;10.10;;;4.40;;
48526;SDS011;34317;51.660;5.824;2022-10-22T07:06:20;8.73;;;4.10;;
48526;SDS011;34317;51.660;5.824;2022-10-22T07:08:49;9.02;;;4.03;;
48526;SDS011;34317;51.660;5.824;2022-10-22T07:11:18;10.00;;;4.07;;
48526;SDS011;34317;51.660;5.824;2022-10-22T07:13:47;8.27;;;4.20;;
48526;SDS011;34317;51.660;5.824;2022-10-22T07:16:15;13.98;;;4.35;;
48526;SDS011;34317;51.660;5.824;2022-10-22T07:18:44;10.43;;;4.32;;
48526;SDS011;34317;51.660;5.824;2022-10-22T07:21:12;11.77;;;3.95;;
48526;SDS011;34317;51.660;5.824;2022-10-22T07:23:41;13.02;;;3.97;;
48526;SDS011;34317;51.660;5.824;2022-10-22T07:26:08;12.95;;;4.07;;
48526;SDS011;34317;51.660;5.824;2022-10-22T07:28:38;13.13;;;3.90;;
48526;SDS011;34317;51.660;5.824;2022-10-22T07:31:07;15.50;;;4.00;;
48526;SDS011;34317;51.660;5.824;2022-10-22T07:33:36;8.10;;;3.40;;
48526;SDS011;34317;51.660;5.824;2022-10-22T07:36:04;10.90;;;3.65;;
48526;SDS011;34317;51.660;5.824;2022-10-22T07:38:33;11.63;;;3.65;;
48526;SDS011;34317;51.660;5.824;2022-10-22T07:41:01;11.98;;;3.58;;
48526;SDS011;34317;51.660;5.824;2022-10-22T07:43:29;6.45;;;2.85;;
48526;SDS011;34317;51.660;5.824;2022-10-22T07:45:56;8.65;;;3.35;;
48526;SDS011;34317;51.660;5.824;2022-10-22T07:48:23;7.97;;;3.17;;
48526;SDS011;34317;51.660;5.824;2022-10-22T07:50:50;9.82;;;3.10;;
48526;SDS011;34317;51.660;5.824;2022-10-22T07:53:18;11.45;;;3.47;;
48526;SDS011;34317;51.660;5.824;2022-10-22T07:55:46;8.25;;;2.88;;
48526;SDS011;34317;51.660;5.824;2022-10-22T07:58:15;10.32;;;3.20;;
48526;SDS011;34317;51.660;5.824;2022-10-22T08:00:46;7.13;;;2.60;;
48526;SDS011;34317;51.660;5.824;2022-10-22T08:03:14;9.95;;;2.97;;
48526;SDS011;34317;51.660;5.824;2022-10-22T08:05:43;7.68;;;2.90;;
48526;SDS011;34317;51.660;5.824;2022-10-22T08:08:11;8.00;;;2.85;;
48526;SDS011;34317;51.660;5.824;2022-10-22T08:10:39;8.93;;;2.50;;
48526;SDS011;34317;51.660;5.824;2022-10-22T08:13:06;11.65;;;3.08;;
48526;SDS011;34317;51.660;5.824;2022-10-22T08:15:34;7.55;;;2.97;;
48526;SDS011;34317;51.660;5.824;2022-10-22T08:18:01;7.85;;;2.80;;
48526;SDS011;34317;51.660;5.824;2022-10-22T08:20:28;11.40;;;2.90;;
48526;SDS011;34317;51.660;5.824;2022-10-22T08:22:55;13.60;;;2.95;;
48526;SDS011;34317;51.660;5.824;2022-10-22T08:25:23;10.15;;;3.30;;
48526;SDS011;34317;51.660;5.824;2022-10-22T08:27:51;7.65;;;2.95;;
48526;SDS011;34317;51.660;5.824;2022-10-22T08:30:18;11.30;;;2.67;;
48526;SDS011;34317;51.660;5.824;2022-10-22T08:32:45;10.82;;;2.95;;
48526;SDS011;34317;51.660;5.824;2022-10-22T08:35:17;10.85;;;2.60;;
48526;SDS011;34317;51.660;5.824;2022-10-22T08:37:44;7.38;;;2.50;;
48526;SDS011;34317;51.660;5.824;2022-10-22T08:40:18;9.55;;;2.38;;
48526;SDS011;34317;51.660;5.824;2022-10-22T08:43:04;9.05;;;2.30;;
48526;SDS011;34317;51.660;5.824;2022-10-22T08:48:40;7.95;;;2.40;;
48526;SDS011;34317;51.660;5.824;2022-10-22T08:51:15;9.13;;;2.30;;
48526;SDS011;34317;51.660;5.824;2022-10-22T08:56:40;9.93;;;2.70;;
48526;SDS011;34317;51.660;5.824;2022-10-22T08:59:22;11.25;;;2.38;;
48526;SDS011;34317;51.660;5.824;2022-10-22T09:02:08;12.65;;;2.25;;
48526;SDS011;34317;51.660;5.824;2022-10-22T09:05:12;9.82;;;2.60;;
48526;SDS011;34317;51.660;5.824;2022-10-22T09:07:47;8.98;;;2.40;;
48526;SDS011;34317;51.660;5.824;2022-10-22T09:10:17;9.30;;;2.28;;
48526;SDS011;34317;51.660;5.824;2022-10-22T09:12:47;9.93;;;2.13;;
48526;SDS011;34317;51.660;5.824;2022-10-22T09:15:15;9.30;;;2.35;;
48526;SDS011;34317;51.660;5.824;2022-10-22T09:18:50;8.18;;;2.30;;
48526;SDS011;34317;51.660;5.824;2022-10-22T09:21:02;8.80;;;2.33;;
48526;SDS011;34317;51.660;5.824;2022-10-22T09:23:48;8.75;;;2.25;;
48526;SDS011;34317;51.660;5.824;2022-10-22T09:26:24;7.53;;;2.30;;
48526;SDS011;34317;51.660;5.824;2022-10-22T09:28:52;8.23;;;2.17;;
48526;SDS011;34317;51.660;5.824;2022-10-22T09:31:19;10.38;;;2.20;;
48526;SDS011;34317;51.660;5.824;2022-10-22T09:33:46;9.45;;;2.08;;
48526;SDS011;34317;51.660;5.824;2022-10-22T09:36:17;8.75;;;2.13;;
48526;SDS011;34317;51.660;5.824;2022-10-22T09:38:51;8.38;;;2.40;;
48526;SDS011;34317;51.660;5.824;2022-10-22T09:41:20;11.25;;;2.85;;
48526;SDS011;34317;51.660;5.824;2022-10-22T09:43:50;11.00;;;2.40;;
48526;SDS011;34317;51.660;5.824;2022-10-22T09:46:19;7.25;;;2.42;;
48526;SDS011;34317;51.660;5.824;2022-10-22T09:48:51;7.70;;;2.30;;
48526;SDS011;34317;51.660;5.824;2022-10-22T09:51:35;8.88;;;2.22;;
48526;SDS011;34317;51.660;5.824;2022-10-22T09:54:21;7.07;;;2.10;;
48526;SDS011;34317;51.660;5.824;2022-10-22T09:56:51;11.10;;;2.67;;
48526;SDS011;34317;51.660;5.824;2022-10-22T09:59:29;14.13;;;2.63;;
48526;SDS011;34317;51.660;5.824;2022-10-22T10:02:04;7.63;;;2.30;;
48526;SDS011;34317;51.660;5.824;2022-10-22T10:04:47;8.98;;;2.55;;
48526;SDS011;34317;51.660;5.824;2022-10-22T10:07:23;11.32;;;2.55;;
48526;SDS011;34317;51.660;5.824;2022-10-22T10:09:52;8.18;;;2.80;;
48526;SDS011;34317;51.660;5.824;2022-10-22T10:15:23;11.93;;;2.47;;
48526;SDS011;34317;51.660;5.824;2022-10-22T10:18:23;9.45;;;2.40;;
48526;SDS011;34317;51.660;5.824;2022-10-22T10:26:52;12.18;;;2.40;;
48526;SDS011;34317;51.660;5.824;2022-10-22T10:29:26;10.48;;;2.60;;
48526;SDS011;34317;51.660;5.824;2022-10-22T10:32:05;11.88;;;2.63;;
48526;SDS011;34317;51.660;5.824;2022-10-22T10:39:42;8.48;;;2.25;;
48526;SDS011;34317;51.660;5.824;2022-10-22T10:56:52;7.30;;;2.20;;
48526;SDS011;34317;51.660;5.824;2022-10-22T11:02:59;10.85;;;2.30;;
48526;SDS011;34317;51.660;5.824;2022-10-22T11:05:50;8.70;;;2.30;;
48526;SDS011;34317;51.660;5.824;2022-10-22T11:08:36;10.98;;;2.20;;
48526;SDS011;34317;51.660;5.824;2022-10-22T11:13:57;7.00;;;2.20;;
48526;SDS011;34317;51.660;5.824;2022-10-22T11:16:48;9.63;;;2.08;;
48526;SDS011;34317;51.660;5.824;2022-10-22T11:19:26;9.73;;;2.40;;
48526;SDS011;34317;51.660;5.824;2022-10-22T11:22:37;8.20;;;2.22;;
48526;SDS011;34317;51.660;5.824;2022-10-22T11:25:31;5.55;;;2.25;;
48526;SDS011;34317;51.660;5.824;2022-10-22T11:28:10;7.13;;;2.20;;
48526;SDS011;34317;51.660;5.824;2022-10-22T11:30:45;6.72;;;1.90;;
48526;SDS011;34317;51.660;5.824;2022-10-22T11:33:20;9.68;;;2.28;;
48526;SDS011;34317;51.660;5.824;2022-10-22T11:35:50;9.15;;;2.45;;
48526;SDS011;34317;51.660;5.824;2022-10-22T11:38:22;8.35;;;2.35;;
48526;SDS011;34317;51.660;5.824;2022-10-22T11:43:32;8.93;;;2.38;;
48526;SDS011;34317;51.660;5.824;2022-10-22T11:46:53;5.68;;;2.10;;
48526;SDS011;34317;51.660;5.824;2022-10-22T11:49:02;8.90;;;2.03;;
48526;SDS011;34317;51.660;5.824;2022-10-22T11:51:36;11.43;;;2.28;;
48526;SDS011;34317;51.660;5.824;2022-10-22T11:54:25;9.90;;;2.30;;
48526;SDS011;34317;51.660;5.824;2022-10-22T11:59:51;11.50;;;2.38;;
48526;SDS011;34317;51.660;5.824;2022-10-22T12:02:37;7.60;;;1.92;;
48526;SDS011;34317;51.660;5.824;2022-10-22T12:07:55;10.30;;;2.33;;
48526;SDS011;34317;51.660;5.824;2022-10-22T12:10:26;9.02;;;2.45;;
48526;SDS011;34317;51.660;5.824;2022-10-22T12:13:12;9.73;;;2.17;;
48526;SDS011;34317;51.660;5.824;2022-10-22T12:15:47;9.40;;;2.10;;
48526;SDS011;34317;51.660;5.824;2022-10-22T12:18:17;10.57;;;2.03;;
48526;SDS011;34317;51.660;5.824;2022-10-22T12:20:48;8.10;;;2.00;;
48526;SDS011;34317;51.660;5.824;2022-10-22T12:23:16;9.80;;;2.25;;
48526;SDS011;34317;51.660;5.824;2022-10-22T12:25:44;6.78;;;2.10;;
48526;SDS011;34317;51.660;5.824;2022-10-22T12:28:11;9.40;;;2.08;;
48526;SDS011;34317;51.660;5.824;2022-10-22T12:30:39;8.02;;;2.40;;
48526;SDS011;34317;51.660;5.824;2022-10-22T12:33:15;10.38;;;2.78;;
48526;SDS011;34317;51.660;5.824;2022-10-22T12:35:45;12.07;;;2.63;;
48526;SDS011;34317;51.660;5.824;2022-10-22T12:38:14;10.02;;;2.40;;
48526;SDS011;34317;51.660;5.824;2022-10-22T12:40:46;5.60;;;2.17;;
48526;SDS011;34317;51.660;5.824;2022-10-22T12:43:16;10.82;;;2.38;;
48526;SDS011;34317;51.660;5.824;2022-10-22T12:45:46;10.27;;;2.50;;
48526;SDS011;34317;51.660;5.824;2022-10-22T12:48:21;8.63;;;2.30;;
48526;SDS011;34317;51.660;5.824;2022-10-22T12:50:51;8.07;;;2.45;;
48526;SDS011;34317;51.660;5.824;2022-10-22T12:53:23;9.73;;;2.55;;
48526;SDS011;34317;51.660;5.824;2022-10-22T12:56:00;9.23;;;2.40;;
48526;SDS011;34317;51.660;5.824;2022-10-22T12:58:33;8.50;;;2.45;;
48526;SDS011;34317;51.660;5.824;2022-10-22T13:01:08;8.57;;;2.60;;
48526;SDS011;34317;51.660;5.824;2022-10-22T13:03:41;7.72;;;2.22;;
48526;SDS011;34317;51.660;5.824;2022-10-22T13:08:44;8.55;;;2.05;;
48526;SDS011;34317;51.660;5.824;2022-10-22T13:11:22;8.98;;;1.58;;
48526;SDS011;34317;51.660;5.824;2022-10-22T13:13:49;10.63;;;2.17;;
48526;SDS011;34317;51.660;5.824;2022-10-22T13:16:18;7.18;;;1.90;;
48526;SDS011;34317;51.660;5.824;2022-10-22T13:18:53;6.30;;;1.77;;
48526;SDS011;34317;51.660;5.824;2022-10-22T13:21:21;6.47;;;1.98;;
48526;SDS011;34317;51.660;5.824;2022-10-22T13:23:56;5.95;;;2.00;;
48526;SDS011;34317;51.660;5.824;2022-10-22T13:26:32;9.75;;;2.22;;
48526;SDS011;34317;51.660;5.824;2022-10-22T13:29:02;7.82;;;2.08;;
48526;SDS011;34317;51.660;5.824;2022-10-22T13:31:36;8.07;;;2.33;;
48526;SDS011;34317;51.660;5.824;2022-10-22T13:34:11;9.88;;;1.98;;
48526;SDS011;34317;51.660;5.824;2022-10-22T13:36:43;8.13;;;1.95;;
48526;SDS011;34317;51.660;5.824;2022-10-22T13:39:20;5.72;;;1.80;;
48526;SDS011;34317;51.660;5.824;2022-10-22T13:41:49;5.97;;;1.92;;
48526;SDS011;34317;51.660;5.824;2022-10-22T13:44:17;10.38;;;2.05;;
48526;SDS011;34317;51.660;5.824;2022-10-22T13:46:48;7.32;;;1.80;;
48526;SDS011;34317;51.660;5.824;2022-10-22T13:49:16;6.40;;;1.80;;
48526;SDS011;34317;51.660;5.824;2022-10-22T13:51:45;7.20;;;1.80;;
48526;SDS011;34317;51.660;5.824;2022-10-22T13:54:17;10.82;;;1.92;;
48526;SDS011;34317;51.660;5.824;2022-10-22T13:56:46;6.90;;;1.67;;
48526;SDS011;34317;51.660;5.824;2022-10-22T13:59:13;7.93;;;1.67;;
48526;SDS011;34317;51.660;5.824;2022-10-22T14:01:45;8.52;;;1.90;;
48526;SDS011;34317;51.660;5.824;2022-10-22T14:04:12;7.60;;;1.83;;
48526;SDS011;34317;51.660;5.824;2022-10-22T14:06:40;8.15;;;1.67;;
48526;SDS011;34317;51.660;5.824;2022-10-22T14:09:10;6.88;;;2.03;;
48526;SDS011;34317;51.660;5.824;2022-10-22T14:11:40;8.30;;;1.75;;
48526;SDS011;34317;51.660;5.824;2022-10-22T14:14:07;6.72;;;1.83;;
48526;SDS011;34317;51.660;5.824;2022-10-22T14:16:35;5.63;;;1.50;;
48526;SDS011;34317;51.660;5.824;2022-10-22T14:19:03;7.95;;;1.63;;
48526;SDS011;34317;51.660;5.824;2022-10-22T14:21:34;6.25;;;1.50;;
48526;SDS011;34317;51.660;5.824;2022-10-22T14:24:02;6.70;;;1.70;;
48526;SDS011;34317;51.660;5.824;2022-10-22T14:26:34;7.38;;;1.73;;
48526;SDS011;34317;51.660;5.824;2022-10-22T14:29:01;7.30;;;1.90;;
48526;SDS011;34317;51.660;5.824;2022-10-22T14:31:38;8.13;;;1.77;;
48526;SDS011;34317;51.660;5.824;2022-10-22T14:34:12;6.43;;;1.70;;
48526;SDS011;34317;51.660;5.824;2022-10-22T14:36:41;8.88;;;1.90;;
48526;SDS011;34317;51.660;5.824;2022-10-22T14:39:10;5.95;;;1.60;;
48526;SDS011;34317;51.660;5.824;2022-10-22T14:41:37;5.25;;;1.48;;
48526;SDS011;34317;51.660;5.824;2022-10-22T14:44:07;6.03;;;1.55;;
48526;SDS011;34317;51.660;5.824;2022-10-22T14:46:38;7.68;;;1.90;;
48526;SDS011;34317;51.660;5.824;2022-10-22T14:49:08;14.02;;;1.83;;
48526;SDS011;34317;51.660;5.824;2022-10-22T14:51:35;7.82;;;1.73;;
48526;SDS011;34317;51.660;5.824;2022-10-22T14:54:02;5.22;;;1.60;;
48526;SDS011;34317;51.660;5.824;2022-10-22T14:56:29;7.90;;;1.63;;
48526;SDS011;34317;51.660;5.824;2022-10-22T14:58:56;6.47;;;1.67;;
48526;SDS011;34317;51.660;5.824;2022-10-22T15:01:23;6.78;;;1.88;;
48526;SDS011;34317;51.660;5.824;2022-10-22T15:03:50;7.93;;;1.70;;
48526;SDS011;34317;51.660;5.824;2022-10-22T15:06:17;4.68;;;1.42;;
48526;SDS011;34317;51.660;5.824;2022-10-22T15:08:44;8.45;;;1.95;;
48526;SDS011;34317;51.660;5.824;2022-10-22T15:11:12;7.32;;;2.00;;
48526;SDS011;34317;51.660;5.824;2022-10-22T15:13:39;5.60;;;1.70;;
48526;SDS011;34317;51.660;5.824;2022-10-22T15:16:08;8.98;;;1.63;;
48526;SDS011;34317;51.660;5.824;2022-10-22T15:18:36;8.80;;;2.10;;
48526;SDS011;34317;51.660;5.824;2022-10-22T15:21:05;6.53;;;1.58;;
48526;SDS011;34317;51.660;5.824;2022-10-22T15:23:34;9.50;;;2.13;;
48526;SDS011;34317;51.660;5.824;2022-10-22T15:26:02;6.63;;;2.03;;
48526;SDS011;34317;51.660;5.824;2022-10-22T15:28:29;8.70;;;2.00;;
48526;SDS011;34317;51.660;5.824;2022-10-22T15:30:57;9.30;;;1.80;;
48526;SDS011;34317;51.660;5.824;2022-10-22T15:33:26;5.90;;;2.08;;
48526;SDS011;34317;51.660;5.824;2022-10-22T15:35:54;10.65;;;1.83;;
48526;SDS011;34317;51.660;5.824;2022-10-22T15:38:26;6.07;;;1.83;;
48526;SDS011;34317;51.660;5.824;2022-10-22T15:41:02;5.65;;;1.50;;
48526;SDS011;34317;51.660;5.824;2022-10-22T15:43:32;7.57;;;1.70;;
48526;SDS011;34317;51.660;5.824;2022-10-22T15:46:07;5.95;;;1.55;;
48526;SDS011;34317;51.660;5.824;2022-10-22T15:48:36;11.18;;;2.00;;
48526;SDS011;34317;51.660;5.824;2022-10-22T15:51:07;7.82;;;2.00;;
48526;SDS011;34317;51.660;5.824;2022-10-22T15:53:36;7.95;;;1.95;;
48526;SDS011;34317;51.660;5.824;2022-10-22T15:56:03;11.35;;;2.03;;
48526;SDS011;34317;51.660;5.824;2022-10-22T15:58:31;6.30;;;1.90;;
48526;SDS011;34317;51.660;5.824;2022-10-22T16:01:05;6.38;;;2.00;;
48526;SDS011;34317;51.660;5.824;2022-10-22T16:03:34;4.85;;;1.75;;
48526;SDS011;34317;51.660;5.824;2022-10-22T16:06:01;6.47;;;2.03;;
48526;SDS011;34317;51.660;5.824;2022-10-22T16:08:29;7.43;;;1.70;;
48526;SDS011;34317;51.660;5.824;2022-10-22T16:10:56;5.70;;;1.52;;
48526;SDS011;34317;51.660;5.824;2022-10-22T16:13:24;6.55;;;1.70;;
48526;SDS011;34317;51.660;5.824;2022-10-22T16:15:52;6.40;;;1.98;;
48526;SDS011;34317;51.660;5.824;2022-10-22T16:18:19;8.05;;;2.00;;
48526;SDS011;34317;51.660;5.824;2022-10-22T16:20:47;6.47;;;2.10;;